Time,TemperatureF,DewpointF,PressureIn,WindDirection,WindDirectionDegrees,WindSpeedMPH,WindSpeedGustMPH,Humidity,HourlyPrecipIn,Conditions,Clouds,dailyrainin,SoftwareType,DateUTC
2013-04-17 00:03:00,75.0,70.0,30.11,East,83,6.0,10.0,84,-99.99,,,-99.99,,2013-04-17 04:03:00,
2013-04-17 00:13:00,75.0,71.0,30.11,ENE,77,5.0,8.0,86,-99.99,,,-99.99,,2013-04-17 04:13:00,
2013-04-17 00:23:00,75.0,71.0,30.11,ENE,77,5.0,8.0,86,-99.99,,,-99.99,,2013-04-17 04:23:00,
2013-04-17 00:33:00,75.0,71.0,30.11,ENE,70,5.0,9.0,87,-99.99,,,-99.99,,2013-04-17 04:33:00,
2013-04-17 00:42:00,74.0,70.0,30.11,ENE,68,5.0,7.0,87,-99.99,,,-99.99,,2013-04-17 04:42:00,
2013-04-17 00:53:00,74.0,70.0,30.11,ENE,69,5.0,9.0,87,-99.99,,,-99.99,,2013-04-17 04:53:00,
2013-04-17 01:03:00,74.0,70.0,30.11,ENE,69,5.0,9.0,87,-99.99,,,-99.99,,2013-04-17 05:03:00,
2013-04-17 01:12:00,74.0,70.0,30.10,ENE,77,4.0,6.0,87,-99.99,,,-99.99,,2013-04-17 05:12:00,
2013-04-17 01:22:00,74.0,70.0,30.10,ENE,77,4.0,6.0,87,-99.99,,,-99.99,,2013-04-17 05:22:00,
2013-04-17 01:32:00,74.0,70.0,30.10,East,81,4.0,7.0,87,-99.99,,,-99.99,,2013-04-17 05:32:00,
2013-04-17 01:43:00,74.0,70.0,30.10,ENE,78,5.0,10.0,86,-99.99,,,-99.99,,2013-04-17 05:43:00,
2013-04-17 01:52:00,74.0,70.0,30.09,ENE,60,5.0,6.0,87,-99.99,,,-99.99,,2013-04-17 05:52:00,
2013-04-17 02:02:00,74.0,70.0,30.09,ENE,60,5.0,6.0,87,-99.99,,,-99.99,,2013-04-17 06:02:00,
2013-04-17 02:12:00,73.0,70.0,30.09,ENE,63,5.0,7.0,88,-99.99,,,-99.99,,2013-04-17 06:12:00,
2013-04-17 02:22:00,73.0,70.0,30.09,ENE,63,5.0,7.0,88,-99.99,,,-99.99,,2013-04-17 06:22:00,
2013-04-17 02:32:00,73.0,70.0,30.08,ENE,64,4.0,7.0,88,-99.99,,,-99.99,,2013-04-17 06:32:00,
2013-04-17 02:42:00,73.0,70.0,30.08,NE,54,4.0,5.0,89,-99.99,,,-99.99,,2013-04-17 06:42:00,
2013-04-17 02:52:00,74.0,70.0,30.07,ENE,68,4.0,5.0,89,-99.99,,,-99.99,,2013-04-17 06:52:00,
2013-04-17 03:02:00,74.0,70.0,30.07,ENE,68,4.0,5.0,89,-99.99,,,-99.99,,2013-04-17 07:02:00,
2013-04-17 03:12:00,74.0,70.0,30.07,ENE,65,4.0,7.0,88,-99.99,,,-99.99,,2013-04-17 07:12:00,
2013-04-17 03:22:00,74.0,70.0,30.07,ENE,65,4.0,7.0,88,-99.99,,,-99.99,,2013-04-17 07:22:00,
2013-04-17 03:32:00,74.0,70.0,30.07,ENE,58,5.0,7.0,87,-99.99,,,-99.99,,2013-04-17 07:32:00,
2013-04-17 03:42:00,73.0,70.0,30.06,ENE,68,4.0,10.0,89,-99.99,,,-99.99,,2013-04-17 07:42:00,
2013-04-17 03:52:00,72.0,69.0,30.06,NE,52,7.0,47.0,90,-99.99,,,-99.99,,2013-04-17 07:52:00,
2013-04-17 04:02:00,72.0,69.0,30.06,NE,52,7.0,47.0,90,-99.99,,,-99.99,,2013-04-17 08:02:00,
2013-04-17 04:12:00,72.0,70.0,30.06,NE,45,6.0,7.0,91,-99.99,,,-99.99,,2013-04-17 08:12:00,
2013-04-17 04:22:00,72.0,70.0,30.06,NE,45,6.0,7.0,91,-99.99,,,-99.99,,2013-04-17 08:22:00,
2013-04-17 04:32:00,72.0,69.0,30.06,NE,49,5.0,8.0,91,-99.99,,,-99.99,,2013-04-17 08:32:00,
2013-04-17 04:42:00,72.0,69.0,30.06,NE,51,4.0,5.0,90,-99.99,,,-99.99,,2013-04-17 08:42:00,
2013-04-17 04:52:00,72.0,69.0,30.06,NE,42,4.0,6.0,92,-99.99,,,-99.99,,2013-04-17 08:52:00,
2013-04-17 05:02:00,72.0,69.0,30.06,NE,42,4.0,6.0,92,-99.99,,,-99.99,,2013-04-17 09:02:00,
2013-04-17 05:12:00,71.0,69.0,30.06,NE,37,4.0,5.0,93,-99.99,,,-99.99,,2013-04-17 09:12:00,
2013-04-17 05:22:00,71.0,69.0,30.06,NE,37,4.0,5.0,93,-99.99,,,-99.99,,2013-04-17 09:22:00,
2013-04-17 05:33:00,71.0,69.0,30.06,NNE,25,4.0,5.0,94,-99.99,,,-99.99,,2013-04-17 09:33:00,
2013-04-17 05:42:00,71.0,69.0,30.06,NE,38,4.0,6.0,94,-99.99,,,-99.99,,2013-04-17 09:42:00,
2013-04-17 05:53:00,71.0,69.0,30.05,NE,40,6.0,7.0,94,-99.99,,,-99.99,,2013-04-17 09:53:00,
2013-04-17 06:03:00,71.0,69.0,30.05,NE,40,6.0,7.0,94,-99.99,,,-99.99,,2013-04-17 10:03:00,
2013-04-17 06:12:00,71.0,69.0,30.05,NE,51,6.0,8.0,92,-99.99,,,-99.99,,2013-04-17 10:12:00,
2013-04-17 06:23:00,71.0,69.0,30.05,NE,51,6.0,8.0,92,-99.99,,,-99.99,,2013-04-17 10:23:00,
2013-04-17 06:32:00,71.0,68.0,30.05,NE,54,6.0,8.0,91,-99.99,,,-99.99,,2013-04-17 10:32:00,
2013-04-17 06:43:00,71.0,68.0,30.06,NE,56,4.0,6.0,91,-99.99,,,-99.99,,2013-04-17 10:43:00,
2013-04-17 06:53:00,71.0,68.0,30.06,ENE,57,4.0,5.0,92,-99.99,,,-99.99,,2013-04-17 10:53:00,
2013-04-17 07:02:00,71.0,68.0,30.06,ENE,57,4.0,5.0,92,-99.99,,,-99.99,,2013-04-17 11:02:00,
2013-04-17 07:12:00,70.0,68.0,30.07,NE,47,4.0,5.0,93,-99.99,,,-99.99,,2013-04-17 11:12:00,
2013-04-17 07:22:00,70.0,68.0,30.07,NE,47,4.0,5.0,93,-99.99,,,-99.99,,2013-04-17 11:22:00,
2013-04-17 07:32:00,70.0,68.0,30.07,NE,40,4.0,5.0,94,-99.99,,,-99.99,,2013-04-17 11:32:00,
2013-04-17 07:42:00,70.0,68.0,30.08,NNE,26,4.0,6.0,94,-99.99,,,-99.99,,2013-04-17 11:42:00,
2013-04-17 07:52:00,70.0,69.0,30.08,NNE,26,4.0,6.0,94,-99.99,,,-99.99,,2013-04-17 11:52:00,
2013-04-17 08:03:00,70.0,69.0,30.08,NNE,26,4.0,6.0,94,-99.99,,,-99.99,,2013-04-17 12:03:00,
2013-04-17 08:12:00,71.0,69.0,30.09,NNE,28,5.0,10.0,91,-99.99,,,-99.99,,2013-04-17 12:12:00,
2013-04-17 08:22:00,71.0,69.0,30.09,NNE,28,5.0,10.0,91,-99.99,,,-99.99,,2013-04-17 12:22:00,
2013-04-17 08:30:00,75.0,69.0,30.10,NE,43,6.0,9.0,82,-99.99,,,-99.99,,2013-04-17 12:30:00,
2013-04-17 08:32:00,73.0,69.0,30.09,NNE,29,5.0,7.0,88,-99.99,,,-99.99,,2013-04-17 12:32:00,
2013-04-17 08:42:00,74.0,69.0,30.10,NE,43,6.0,8.0,85,-99.99,,,-99.99,,2013-04-17 12:42:00,
2013-04-17 08:52:00,75.0,69.0,30.10,NE,43,6.0,9.0,82,-99.99,,,-99.99,,2013-04-17 12:52:00,
2013-04-17 09:02:00,75.0,69.0,30.10,NE,43,6.0,9.0,82,-99.99,,,-99.99,,2013-04-17 13:02:00,
2013-04-17 09:12:00,75.0,69.0,30.10,NE,43,6.0,9.0,82,-99.99,,,-99.99,,2013-04-17 13:12:00,
2013-04-17 09:22:00,75.0,69.0,30.10,NE,43,6.0,9.0,82,-99.99,,,-99.99,,2013-04-17 13:22:00,
2013-04-17 11:33:00,75.0,69.0,30.10,NE,43,6.0,9.0,82,-99.99,,,-99.99,,2013-04-17 15:33:00,
2013-04-17 11:43:00,75.0,69.0,30.10,NE,43,6.0,9.0,82,-99.99,,,-99.99,,2013-04-17 15:43:00,
2013-04-17 11:53:00,79.0,69.0,30.10,ENE,65,11.0,15.0,69,-99.99,,,-99.99,,2013-04-17 15:53:00,
2013-04-17 12:03:00,79.0,69.0,30.10,ENE,65,11.0,15.0,69,-99.99,,,-99.99,,2013-04-17 16:03:00,
2013-04-17 12:12:00,80.0,68.0,30.09,ENE,63,9.0,17.0,68,-99.99,,,-99.99,,2013-04-17 16:12:00,
2013-04-17 12:23:00,80.0,68.0,30.09,ENE,63,9.0,17.0,68,-99.99,,,-99.99,,2013-04-17 16:23:00,
2013-04-17 12:32:00,80.0,68.0,30.09,ENE,63,9.0,17.0,68,-99.99,,,-99.99,,2013-04-17 16:32:00,
2013-04-17 12:42:00,81.0,69.0,30.09,ENE,74,9.0,14.0,64,-99.99,,,-99.99,,2013-04-17 16:42:00,
2013-04-17 12:52:00,82.0,69.0,30.09,East,85,10.0,16.0,64,-99.99,,,-99.99,,2013-04-17 16:52:00,
2013-04-17 13:02:00,82.0,69.0,30.09,East,85,10.0,16.0,64,-99.99,,,-99.99,,2013-04-17 17:02:00,
2013-04-17 13:12:00,82.0,69.0,30.09,East,85,10.0,16.0,64,-99.99,,,-99.99,,2013-04-17 17:12:00,
2013-04-17 13:22:00,81.0,69.0,30.08,East,80,10.0,16.0,65,-99.99,,,-99.99,,2013-04-17 17:22:00,
2013-04-17 13:33:00,81.0,69.0,30.08,East,80,10.0,16.0,65,-99.99,,,-99.99,,2013-04-17 17:33:00,
2013-04-17 13:42:00,80.0,69.0,30.07,ENE,73,10.0,16.0,66,-99.99,,,-99.99,,2013-04-17 17:42:00,
2013-04-17 13:52:00,80.0,68.0,30.07,ENE,67,11.0,16.0,66,-99.99,,,-99.99,,2013-04-17 17:52:00,
2013-04-17 14:02:00,80.0,68.0,30.07,ENE,67,11.0,16.0,66,-99.99,,,-99.99,,2013-04-17 18:02:00,
2013-04-17 14:12:00,81.0,69.0,30.07,ENE,69,10.0,19.0,65,-99.99,,,-99.99,,2013-04-17 18:12:00,
2013-04-17 14:22:00,81.0,69.0,30.07,ENE,69,10.0,19.0,65,-99.99,,,-99.99,,2013-04-17 18:22:00,
2013-04-17 14:32:00,81.0,69.0,30.07,ENE,69,10.0,19.0,65,-99.99,,,-99.99,,2013-04-17 18:32:00,
2013-04-17 14:42:00,82.0,68.0,30.06,ENE,74,10.0,15.0,62,-99.99,,,-99.99,,2013-04-17 18:42:00,
2013-04-17 14:52:00,82.0,69.0,30.05,East,84,9.0,17.0,63,-99.99,,,-99.99,,2013-04-17 18:52:00,
2013-04-17 15:02:00,82.0,69.0,30.05,East,84,9.0,17.0,63,-99.99,,,-99.99,,2013-04-17 19:02:00,
2013-04-17 15:12:00,82.0,69.0,30.05,East,84,9.0,17.0,63,-99.99,,,-99.99,,2013-04-17 19:12:00,
2013-04-17 15:22:00,82.0,69.0,30.05,East,84,9.0,17.0,63,-99.99,,,-99.99,,2013-04-17 19:22:00,
2013-04-17 15:32:00,81.0,68.0,30.05,East,80,9.0,15.0,63,-99.99,,,-99.99,,2013-04-17 19:32:00,
2013-04-17 15:42:00,81.0,68.0,30.03,ENE,75,9.0,15.0,62,-99.99,,,-99.99,,2013-04-17 19:42:00,
2013-04-17 15:52:00,82.0,68.0,30.03,ENE,71,8.0,15.0,61,-99.99,,,-99.99,,2013-04-17 19:52:00,
2013-04-17 16:03:00,82.0,68.0,30.03,ENE,71,8.0,15.0,61,-99.99,,,-99.99,,2013-04-17 20:03:00,
2013-04-17 16:12:00,82.0,67.0,30.02,East,85,9.0,15.0,61,-99.99,,,-99.99,,2013-04-17 20:12:00,
2013-04-17 16:22:00,82.0,67.0,30.02,East,85,9.0,15.0,61,-99.99,,,-99.99,,2013-04-17 20:22:00,
2013-04-17 16:32:00,81.0,67.0,30.02,ENE,74,9.0,15.0,62,-99.99,,,-99.99,,2013-04-17 20:32:00,
2013-04-17 16:42:00,82.0,67.0,30.02,East,79,8.0,12.0,61,-99.99,,,-99.99,,2013-04-17 20:42:00,
2013-04-17 16:52:00,82.0,67.0,30.02,ENE,70,9.0,14.0,60,-99.99,,,-99.99,,2013-04-17 20:52:00,
2013-04-17 17:03:00,82.0,67.0,30.02,ENE,70,9.0,14.0,60,-99.99,,,-99.99,,2013-04-17 21:03:00,
2013-04-17 17:12:00,82.0,67.0,30.02,ENE,65,9.0,16.0,60,-99.99,,,-99.99,,2013-04-17 21:12:00,
2013-04-17 17:22:00,82.0,67.0,30.02,ENE,65,9.0,16.0,60,-99.99,,,-99.99,,2013-04-17 21:22:00,
2013-04-17 17:33:00,81.0,67.0,30.02,ENE,73,9.0,15.0,61,-99.99,,,-99.99,,2013-04-17 21:33:00,
2013-04-17 17:43:00,80.0,67.0,30.02,ENE,71,8.0,12.0,62,-99.99,,,-99.99,,2013-04-17 21:43:00,
2013-04-17 17:53:00,80.0,66.0,30.02,ENE,69,9.0,13.0,62,-99.99,,,-99.99,,2013-04-17 21:53:00,
2013-04-17 18:02:00,80.0,66.0,30.02,ENE,69,9.0,13.0,62,-99.99,,,-99.99,,2013-04-17 22:02:00,
2013-04-17 18:13:00,79.0,66.0,30.02,East,81,9.0,14.0,63,-99.99,,,-99.99,,2013-04-17 22:13:00,
2013-04-17 18:22:00,79.0,66.0,30.02,East,81,9.0,14.0,63,-99.99,,,-99.99,,2013-04-17 22:22:00,
2013-04-17 18:33:00,80.0,66.0,30.02,ENE,63,8.0,13.0,63,-99.99,,,-99.99,,2013-04-17 22:33:00,
2013-04-17 18:42:00,79.0,66.0,30.02,ENE,78,8.0,11.0,65,-99.99,,,-99.99,,2013-04-17 22:42:00,
2013-04-17 18:53:00,79.0,67.0,30.02,ENE,75,6.0,11.0,66,-99.99,,,-99.99,,2013-04-17 22:53:00,
2013-04-17 19:02:00,79.0,67.0,30.02,ENE,75,6.0,11.0,66,-99.99,,,-99.99,,2013-04-17 23:02:00,
2013-04-17 19:12:00,79.0,67.0,30.03,East,97,7.0,10.0,67,-99.99,,,-99.99,,2013-04-17 23:12:00,
2013-04-17 19:22:00,79.0,67.0,30.03,East,97,7.0,10.0,67,-99.99,,,-99.99,,2013-04-17 23:22:00,
2013-04-17 19:32:00,78.0,67.0,30.03,ENE,73,7.0,12.0,68,-99.99,,,-99.99,,2013-04-17 23:32:00,
2013-04-17 19:42:00,78.0,67.0,30.03,ENE,67,6.0,9.0,69,-99.99,,,-99.99,,2013-04-17 23:42:00,
2013-04-17 19:52:00,77.0,67.0,30.04,ENE,58,7.0,12.0,71,-99.99,,,-99.99,,2013-04-17 23:52:00,
2013-04-17 20:02:00,77.0,67.0,30.04,ENE,58,7.0,12.0,71,-99.99,,,-99.99,,2013-04-18 00:02:00,
2013-04-17 20:12:00,76.0,67.0,30.04,ENE,60,6.0,10.0,73,-99.99,,,-99.99,,2013-04-18 00:12:00,
2013-04-17 20:22:00,76.0,67.0,30.04,ENE,60,6.0,10.0,73,-99.99,,,-99.99,,2013-04-18 00:22:00,
2013-04-17 20:32:00,75.0,67.0,30.04,ENE,63,6.0,11.0,74,-99.99,,,-99.99,,2013-04-18 00:32:00,
2013-04-17 20:42:00,75.0,67.0,30.04,ENE,63,6.0,11.0,74,-99.99,,,-99.99,,2013-04-18 00:42:00,
2013-04-17 20:52:00,75.0,67.0,30.05,ENE,64,5.0,9.0,75,-99.99,,,-99.99,,2013-04-18 00:52:00,
2013-04-17 21:02:00,75.0,67.0,30.05,ENE,64,5.0,9.0,75,-99.99,,,-99.99,,2013-04-18 01:02:00,
2013-04-17 21:12:00,74.0,67.0,30.05,NE,52,4.0,5.0,77,-99.99,,,-99.99,,2013-04-18 01:12:00,
2013-04-17 21:22:00,74.0,67.0,30.05,NE,52,4.0,5.0,77,-99.99,,,-99.99,,2013-04-18 01:22:00,
2013-04-17 21:32:00,74.0,67.0,30.06,NE,52,4.0,6.0,80,-99.99,,,-99.99,,2013-04-18 01:32:00,
2013-04-17 21:42:00,74.0,67.0,30.06,NE,52,4.0,6.0,80,-99.99,,,-99.99,,2013-04-18 01:42:00,
2013-04-17 21:52:00,73.0,67.0,30.06,ENE,62,3.0,5.0,81,-99.99,,,-99.99,,2013-04-18 01:52:00,
2013-04-17 22:02:00,73.0,67.0,30.06,ENE,62,3.0,5.0,81,-99.99,,,-99.99,,2013-04-18 02:02:00,
2013-04-17 22:12:00,73.0,68.0,30.06,NE,53,3.0,5.0,83,-99.99,,,-99.99,,2013-04-18 02:12:00,
2013-04-17 22:22:00,73.0,68.0,30.06,NE,53,3.0,5.0,83,-99.99,,,-99.99,,2013-04-18 02:22:00,
2013-04-17 22:32:00,73.0,68.0,30.06,NE,53,3.0,5.0,83,-99.99,,,-99.99,,2013-04-18 02:32:00,
2013-04-17 22:42:00,73.0,68.0,30.06,NE,53,3.0,5.0,83,-99.99,,,-99.99,,2013-04-18 02:42:00,
2013-04-17 23:02:00,73.0,67.0,30.06,East,79,5.0,8.0,82,-99.99,,,-99.99,,2013-04-18 03:02:00,
2013-04-17 23:12:00,73.0,67.0,30.05,East,79,6.0,11.0,81,-99.99,,,-99.99,,2013-04-18 03:12:00,
2013-04-17 23:22:00,73.0,67.0,30.05,East,79,6.0,11.0,81,-99.99,,,-99.99,,2013-04-18 03:22:00,
2013-04-17 23:33:00,73.0,67.0,30.05,ENE,71,6.0,8.0,81,-99.99,,,-99.99,,2013-04-18 03:33:00,
2013-04-17 23:43:00,73.0,67.0,30.05,ENE,71,6.0,8.0,81,-99.99,,,-99.99,,2013-04-18 03:43:00,
2013-04-17 23:53:00,73.0,67.0,30.05,ENE,74,4.0,6.0,81,-99.99,,,-99.99,,2013-04-18 03:53:00,